Watkins, Minnesota
Current Conditions -  °F | °C
As of 2:13 PM on Wednesday 28 Jan 2015 (Local Time) from KLJF Reporting Station
Haze Haze  
Wind Chill: 26°   Ceiling: 600
Heat Index: 32°   Visibility: 4mi
Dew Point: 30°   Wind: 7mph
Humidity: 93%   Direction: 140°SE
Pressure: 29.78"   Gusts: NA
Location:  45.32°N, 94.41°W
Report Text: KLJF 282013Z AUTO 14006KT 4SM BR OVC006 00/M01 A2978 RMK AO2
Loading
Personal Weather Stations






























Interactive Weather Map New forecast layout! Learn more

10-Day Weather Forecast

Advertisements
Track Severe Weather on mobile